Time;durP1;ratioP1;P1;durP2;ratioP2;P2;SDS_P1;SDS_P2;PMS_P1;PMS_P2;Temp;Humidity;BMP_temperature;BMP_pressure;BME280_temperature;BME280_humidity;BME280_pressure;Samples;Min_cycle;Max_cycle;Signal;HPM_P1;HPM_P2
2022/07/05 00:01:30;;;;;;;1.13;1.02;;;;;;;;;;5080012;28;20221;-85
2022/07/05 00:03:58;;;;;;;1.25;1.25;;;;;;;;;;5081167;28;20240;-86
2022/07/05 00:06:25;;;;;;;1.52;1.30;;;;;;;;;;5082166;28;20193;-85
2022/07/05 00:08:53;;;;;;;1.20;1.10;;;;;;;;;;5080404;28;20243;-84
2022/07/05 00:11:20;;;;;;;1.08;1.05;;;;;;;;;;5080405;28;20233;-84
2022/07/05 00:13:49;;;;;;;1.15;1.05;;;;;;;;;;5080231;28;20246;-83
2022/07/05 00:16:17;;;;;;;1.00;1.00;;;;;;;;;;5080157;28;20362;-83
2022/07/05 00:18:44;;;;;;;0.85;0.85;;;;;;;;;;5080269;28;20260;-83
2022/07/05 00:21:12;;;;;;;1.25;1.17;;;;;;;;;;5080458;28;20694;-83
2022/07/05 00:23:40;;;;;;;1.23;1.15;;;;;;;;;;5079464;28;20247;-85
2022/07/05 00:26:07;;;;;;;1.00;1.00;;;;;;;;;;5080521;28;20570;-83
2022/07/05 00:28:35;;;;;;;1.10;1.10;;;;;;;;;;5064512;28;20293;-83
2022/07/05 00:31:04;;;;;;;1.58;1.17;;;;;;;;;;5059322;28;20217;-83
2022/07/05 00:33:31;;;;;;;1.02;0.95;;;;;;;;;;5059938;28;20233;-83
2022/07/05 00:35:59;;;;;;;1.20;1.10;;;;;;;;;;5059260;28;20237;-83
2022/07/05 00:38:26;;;;;;;1.02;1.02;;;;;;;;;;5057599;28;20240;-84
2022/07/05 00:40:54;;;;;;;0.93;0.93;;;;;;;;;;5059752;28;20309;-83
2022/07/05 00:43:21;;;;;;;1.27;1.17;;;;;;;;;;5059258;28;20233;-83
2022/07/05 00:45:49;;;;;;;1.23;1.10;;;;;;;;;;5060538;28;20231;-83
2022/07/05 00:48:18;;;;;;;1.75;1.20;;;;;;;;;;5060197;28;20201;-85
2022/07/05 00:50:45;;;;;;;1.33;1.25;;;;;;;;;;5060166;28;20248;-84
2022/07/05 00:53:13;;;;;;;1.17;1.10;;;;;;;;;;5057466;28;20198;-85
2022/07/05 00:55:41;;;;;;;0.90;0.90;;;;;;;;;;5058892;28;20255;-85
2022/07/05 00:58:09;;;;;;;1.75;1.00;;;;;;;;;;5059258;28;20256;-86
2022/07/05 01:00:36;;;;;;;1.10;1.10;;;;;;;;;;5058382;28;20264;-84
2022/07/05 01:03:04;;;;;;;0.80;0.80;;;;;;;;;;5057179;28;20284;-83
2022/07/05 01:05:34;;;;;;;1.20;1.08;;;;;;;;;;5058964;28;20248;-85
2022/07/05 01:08:01;;;;;;;0.98;0.98;;;;;;;;;;5059308;28;20226;-84
2022/07/05 01:10:29;;;;;;;1.02;1.02;;;;;;;;;;5058375;28;20236;-86
2022/07/05 01:12:56;;;;;;;1.10;1.10;;;;;;;;;;5058062;28;20233;-84
2022/07/05 01:15:25;;;;;;;0.95;0.95;;;;;;;;;;5059033;28;20233;-84
2022/07/05 01:17:52;;;;;;;1.38;1.30;;;;;;;;;;5059243;28;20770;-83
2022/07/05 01:20:20;;;;;;;1.10;0.98;;;;;;;;;;5058574;28;20244;-83
2022/07/05 01:22:56;;;;;;;1.10;0.90;;;;;;;;;;5058229;28;20276;-84
2022/07/05 01:25:25;;;;;;;1.23;1.00;;;;;;;;;;5058637;28;20228;-84
2022/07/05 01:27:53;;;;;;;1.90;0.95;;;;;;;;;;5058988;28;20212;-84
2022/07/05 01:30:21;;;;;;;1.10;1.10;;;;;;;;;;5059855;28;20228;-85
2022/07/05 01:32:49;;;;;;;0.75;0.75;;;;;;;;;;5059325;28;20237;-85
2022/07/05 01:35:20;;;;;;;0.75;0.75;;;;;;;;;;5058895;28;20248;-84
2022/07/05 01:37:48;;;;;;;1.08;0.90;;;;;;;;;;5058431;28;20316;-84
2022/07/05 01:40:18;;;;;;;0.93;0.93;;;;;;;;;;5059065;28;20204;-84
2022/07/05 01:42:45;;;;;;;1.10;1.00;;;;;;;;;;5058390;28;20226;-84
2022/07/05 01:45:38;;;;;;;0.90;0.88;;;;;;;;;;5060253;28;20639;-83
2022/07/05 01:48:03;;;;;;;1.08;1.08;;;;;;;;;;5059559;28;20212;-83
2022/07/05 01:50:32;;;;;;;0.90;0.90;;;;;;;;;;5059306;28;20583;-84
2022/07/05 01:53:01;;;;;;;1.35;1.10;;;;;;;;;;5058851;28;20229;-84
2022/07/05 01:55:30;;;;;;;0.85;0.85;;;;;;;;;;5057230;28;20252;-84
2022/07/05 01:57:58;;;;;;;1.95;1.02;;;;;;;;;;5058945;28;20592;-83
2022/07/05 02:00:26;;;;;;;0.65;0.65;;;;;;;;;;5055834;28;20285;-84
2022/07/05 02:02:54;;;;;;;0.70;0.70;;;;;;;;;;5055898;28;20211;-83
2022/07/05 02:05:21;;;;;;;1.35;0.70;;;;;;;;;;5057635;28;20225;-83
2022/07/05 02:07:49;;;;;;;0.50;0.50;;;;;;;;;;5057570;28;20722;-84
2022/07/05 02:10:17;;;;;;;0.77;0.77;;;;;;;;;;5055735;28;20259;-84
2022/07/05 02:12:46;;;;;;;0.63;0.63;;;;;;;;;;5056095;28;20225;-83
2022/07/05 02:15:13;;;;;;;0.52;0.52;;;;;;;;;;5057561;28;20235;-83
2022/07/05 02:17:41;;;;;;;0.60;0.60;;;;;;;;;;5057625;28;20264;-83
2022/07/05 02:20:10;;;;;;;1.38;1.23;;;;;;;;;;5058320;28;20225;-84
2022/07/05 02:22:37;;;;;;;1.30;1.20;;;;;;;;;;5058203;28;20633;-85
2022/07/05 02:25:06;;;;;;;0.55;0.55;;;;;;;;;;5058043;28;20237;-84
2022/07/05 02:27:34;;;;;;;0.80;0.80;;;;;;;;;;5057577;28;20198;-84
2022/07/05 02:30:03;;;;;;;0.88;0.88;;;;;;;;;;5058279;28;20224;-84
2022/07/05 02:32:31;;;;;;;0.60;0.60;;;;;;;;;;5058081;28;20662;-84
2022/07/05 02:34:59;;;;;;;0.80;0.80;;;;;;;;;;5058543;28;20238;-84
2022/07/05 02:37:27;;;;;;;0.70;0.70;;;;;;;;;;5057950;28;20217;-85
2022/07/05 02:39:55;;;;;;;1.20;0.77;;;;;;;;;;5058312;28;20354;-83
2022/07/05 02:42:22;;;;;;;0.75;0.75;;;;;;;;;;5057789;28;20221;-84
2022/07/05 02:44:50;;;;;;;0.75;0.75;;;;;;;;;;5058048;28;20288;-84
2022/07/05 02:47:19;;;;;;;0.63;0.63;;;;;;;;;;5057267;28;20292;-84
2022/07/05 02:49:46;;;;;;;0.63;0.63;;;;;;;;;;5057958;28;20493;-83
2022/07/05 02:52:14;;;;;;;2.75;0.90;;;;;;;;;;5057066;28;20285;-83
2022/07/05 02:54:41;;;;;;;0.50;0.50;;;;;;;;;;5057350;28;20609;-83
2022/07/05 02:57:09;;;;;;;0.80;0.80;;;;;;;;;;5057382;28;20368;-83
2022/07/05 02:59:37;;;;;;;0.70;0.70;;;;;;;;;;5056755;28;20265;-83
2022/07/05 03:02:04;;;;;;;0.50;0.50;;;;;;;;;;5057968;28;20286;-84
2022/07/05 03:04:33;;;;;;;0.88;0.70;;;;;;;;;;5057823;28;20269;-84
2022/07/05 03:07:01;;;;;;;0.70;0.70;;;;;;;;;;5058517;28;20663;-84
2022/07/05 03:09:29;;;;;;;0.70;0.70;;;;;;;;;;5058741;28;20280;-85
2022/07/05 03:11:56;;;;;;;0.70;0.70;;;;;;;;;;5057490;28;20291;-84
2022/07/05 03:14:25;;;;;;;3.50;0.90;;;;;;;;;;5057912;28;20720;-84
2022/07/05 03:16:52;;;;;;;0.60;0.60;;;;;;;;;;5057517;28;20209;-83
2022/07/05 03:19:20;;;;;;;0.60;0.60;;;;;;;;;;5057547;28;20287;-83
2022/07/05 03:21:48;;;;;;;0.70;0.70;;;;;;;;;;5057045;28;20217;-83
2022/07/05 03:24:16;;;;;;;0.55;0.55;;;;;;;;;;5057114;28;20722;-84
2022/07/05 03:26:44;;;;;;;0.80;0.80;;;;;;;;;;5058134;28;20201;-85
2022/07/05 03:29:11;;;;;;;0.50;0.50;;;;;;;;;;5058104;28;20201;-83
2022/07/05 03:31:39;;;;;;;0.70;0.70;;;;;;;;;;5058048;28;20706;-84
2022/07/05 03:34:07;;;;;;;0.47;0.47;;;;;;;;;;5058816;28;20270;-84
2022/07/05 03:36:34;;;;;;;0.70;0.70;;;;;;;;;;5059080;28;20600;-83
2022/07/05 03:39:03;;;;;;;0.70;0.70;;;;;;;;;;5058492;28;20244;-83
2022/07/05 03:41:31;;;;;;;0.55;0.55;;;;;;;;;;5058645;28;20253;-83
2022/07/05 03:43:58;;;;;;;0.60;0.60;;;;;;;;;;5059316;28;20237;-84
2022/07/05 03:46:26;;;;;;;0.60;0.60;;;;;;;;;;5058972;28;20242;-84
2022/07/05 03:48:54;;;;;;;0.68;0.68;;;;;;;;;;5058676;28;20229;-83
2022/07/05 03:51:22;;;;;;;0.80;0.70;;;;;;;;;;5058892;28;20253;-83
2022/07/05 03:53:49;;;;;;;0.90;0.90;;;;;;;;;;5059029;28;20202;-83
2022/07/05 03:56:20;;;;;;;0.68;0.68;;;;;;;;;;5058876;28;20674;-84
2022/07/05 03:58:48;;;;;;;1.00;1.00;;;;;;;;;;5058263;28;20217;-85
2022/07/05 04:01:16;;;;;;;0.80;0.80;;;;;;;;;;5057928;28;20261;-84
2022/07/05 04:03:44;;;;;;;0.70;0.60;;;;;;;;;;5057744;28;20225;-84
2022/07/05 04:06:12;;;;;;;0.68;0.68;;;;;;;;;;5057433;28;20280;-83
2022/07/05 04:08:39;;;;;;;0.70;0.70;;;;;;;;;;5056101;28;20285;-83
2022/07/05 04:11:07;;;;;;;0.73;0.73;;;;;;;;;;5057683;28;20301;-83
2022/07/05 04:13:37;;;;;;;0.70;0.70;;;;;;;;;;5056301;28;20689;-83
2022/07/05 04:16:05;;;;;;;0.65;0.65;;;;;;;;;;5056658;28;20600;-84
2022/07/05 04:18:33;;;;;;;0.60;0.60;;;;;;;;;;5056870;28;20312;-83
2022/07/05 04:21:00;;;;;;;0.60;0.60;;;;;;;;;;5055323;28;20326;-84
2022/07/05 04:23:28;;;;;;;0.63;0.63;;;;;;;;;;5056524;28;20225;-83
2022/07/05 04:25:56;;;;;;;0.80;0.80;;;;;;;;;;5056494;28;20255;-84
2022/07/05 04:28:23;;;;;;;0.47;0.47;;;;;;;;;;5056373;28;20222;-83
2022/07/05 04:30:52;;;;;;;0.90;0.90;;;;;;;;;;5055869;28;20249;-83
2022/07/05 04:33:20;;;;;;;1.85;1.00;;;;;;;;;;5055986;28;20229;-84
2022/07/05 04:35:47;;;;;;;1.63;1.15;;;;;;;;;;5054352;28;20642;-83
2022/07/05 04:38:15;;;;;;;1.23;1.20;;;;;;;;;;5055876;28;20210;-84
2022/07/05 04:40:42;;;;;;;1.00;1.00;;;;;;;;;;5055793;28;20222;-83
2022/07/05 04:43:10;;;;;;;1.00;1.00;;;;;;;;;;5055663;28;20233;-83
2022/07/05 04:45:38;;;;;;;1.65;1.35;;;;;;;;;;5055989;28;20210;-83
2022/07/05 04:48:07;;;;;;;0.90;0.90;;;;;;;;;;5054991;28;20221;-86
2022/07/05 04:50:35;;;;;;;1.60;1.50;;;;;;;;;;5056606;28;20218;-83
2022/07/05 04:53:02;;;;;;;2.38;2.17;;;;;;;;;;5055289;28;20702;-82
2022/07/05 04:55:30;;;;;;;1.25;1.15;;;;;;;;;;5054772;28;20211;-86
2022/07/05 04:57:57;;;;;;;1.00;1.00;;;;;;;;;;5054874;28;20275;-83
2022/07/05 05:00:25;;;;;;;0.90;0.90;;;;;;;;;;5054689;28;20803;-83
2022/07/05 05:02:53;;;;;;;0.93;0.93;;;;;;;;;;5055603;28;20293;-83
2022/07/05 05:05:22;;;;;;;1.25;1.15;;;;;;;;;;5056684;28;20229;-82
2022/07/05 05:07:49;;;;;;;1.33;1.23;;;;;;;;;;5055285;28;20237;-83
2022/07/05 05:10:17;;;;;;;1.30;1.25;;;;;;;;;;5055140;28;20280;-82
2022/07/05 05:12:44;;;;;;;1.45;1.35;;;;;;;;;;5055352;28;20240;-81
2022/07/05 05:15:12;;;;;;;1.25;1.20;;;;;;;;;;5055522;28;20263;-81
2022/07/05 05:17:41;;;;;;;3.42;1.10;;;;;;;;;;5054999;28;20233;-81
2022/07/05 05:20:14;;;;;;;2.10;1.40;;;;;;;;;;5055299;28;20706;-81
2022/07/05 05:22:44;;;;;;;1.17;1.17;;;;;;;;;;5055316;28;20196;-81
2022/07/05 05:25:12;;;;;;;1.33;1.23;;;;;;;;;;5055223;28;20206;-81
2022/07/05 05:27:43;;;;;;;1.33;1.33;;;;;;;;;;5054488;28;20293;-81
2022/07/05 05:30:13;;;;;;;1.10;1.00;;;;;;;;;;5054200;28;20225;-82
2022/07/05 05:32:41;;;;;;;1.88;1.10;;;;;;;;;;5054122;28;20292;-82
2022/07/05 05:35:09;;;;;;;1.80;1.55;;;;;;;;;;5054926;28;20267;-82
2022/07/05 05:37:52;;;;;;;1.00;1.00;;;;;;;;;;5055077;28;20201;-83
2022/07/05 05:40:20;;;;;;;1.17;1.10;;;;;;;;;;5054785;28;20292;-82
2022/07/05 05:42:48;;;;;;;3.30;1.58;;;;;;;;;;5054190;28;20572;-83
2022/07/05 05:45:16;;;;;;;1.15;0.90;;;;;;;;;;5054674;28;20197;-82
2022/07/05 05:47:46;;;;;;;0.88;0.88;;;;;;;;;;5054431;28;20224;-82
2022/07/05 05:50:14;;;;;;;1.30;1.30;;;;;;;;;;5054900;28;20568;-82
2022/07/05 05:52:41;;;;;;;1.40;1.30;;;;;;;;;;5054699;28;20205;-82
2022/07/05 05:55:11;;;;;;;1.40;1.30;;;;;;;;;;5054688;28;20681;-81
2022/07/05 05:57:38;;;;;;;1.00;0.90;;;;;;;;;;5054571;28;20647;-82
2022/07/05 06:00:08;;;;;;;1.55;1.00;;;;;;;;;;5054602;28;20308;-83
2022/07/05 06:02:35;;;;;;;3.08;1.60;;;;;;;;;;5054441;28;20201;-84
2022/07/05 06:05:03;;;;;;;1.20;1.10;;;;;;;;;;5054989;28;20292;-83
2022/07/05 06:07:30;;;;;;;1.00;1.00;;;;;;;;;;5054123;28;20292;-83
2022/07/05 06:09:58;;;;;;;1.52;1.42;;;;;;;;;;5054362;28;20304;-82
2022/07/05 06:12:27;;;;;;;2.70;1.15;;;;;;;;;;5053894;28;20265;-82
2022/07/05 06:14:54;;;;;;;1.33;1.23;;;;;;;;;;5053831;28;20638;-82
2022/07/05 06:17:22;;;;;;;1.20;1.10;;;;;;;;;;5054416;28;20288;-82
2022/07/05 06:19:49;;;;;;;1.50;1.38;;;;;;;;;;5053797;28;20252;-82
2022/07/05 06:22:17;;;;;;;1.55;1.42;;;;;;;;;;5053580;28;20304;-83
2022/07/05 06:24:44;;;;;;;1.30;1.20;;;;;;;;;;5054345;28;20244;-84
2022/07/05 06:27:12;;;;;;;1.95;1.55;;;;;;;;;;5053869;28;20726;-83
2022/07/05 06:29:41;;;;;;;2.78;2.50;;;;;;;;;;5053666;28;20233;-82
2022/07/05 06:32:09;;;;;;;1.30;1.20;;;;;;;;;;5054493;28;20312;-82
2022/07/05 06:34:36;;;;;;;1.40;1.30;;;;;;;;;;5055592;28;20655;-82
2022/07/05 06:37:04;;;;;;;1.63;1.45;;;;;;;;;;5053905;28;20237;-82
2022/07/05 06:39:32;;;;;;;2.33;1.30;;;;;;;;;;5054655;28;20237;-82
2022/07/05 06:42:00;;;;;;;2.08;1.40;;;;;;;;;;5054938;28;20221;-82
2022/07/05 06:44:28;;;;;;;2.38;1.67;;;;;;;;;;5054508;28;20240;-83
2022/07/05 06:46:56;;;;;;;1.40;1.30;;;;;;;;;;5054271;28;20237;-83
2022/07/05 06:49:24;;;;;;;1.83;1.30;;;;;;;;;;5054391;28;20237;-84
2022/07/05 06:51:51;;;;;;;1.92;1.45;;;;;;;;;;5053915;28;20760;-82
2022/07/05 06:54:19;;;;;;;2.08;1.33;;;;;;;;;;5054681;28;20238;-84
2022/07/05 06:56:47;;;;;;;2.08;1.40;;;;;;;;;;5054617;28;20233;-83
2022/07/05 06:59:14;;;;;;;1.50;1.35;;;;;;;;;;5057019;28;20233;-83
2022/07/05 07:01:42;;;;;;;1.45;1.35;;;;;;;;;;5058340;28;20253;-83
2022/07/05 07:04:11;;;;;;;1.30;1.20;;;;;;;;;;5057875;28;20201;-82
2022/07/05 07:06:38;;;;;;;1.50;1.40;;;;;;;;;;5059308;28;20244;-83
2022/07/05 07:09:22;;;;;;;1.13;1.13;;;;;;;;;;5058172;28;20289;-84
2022/07/05 07:11:50;;;;;;;1.30;1.20;;;;;;;;;;5058053;28;20679;-83
2022/07/05 07:14:18;;;;;;;1.50;1.25;;;;;;;;;;5058074;28;20289;-85
2022/07/05 07:16:45;;;;;;;2.08;1.40;;;;;;;;;;5058575;28;20633;-83
2022/07/05 07:19:14;;;;;;;1.85;1.30;;;;;;;;;;5057929;28;20288;-83
2022/07/05 07:21:43;;;;;;;1.38;1.27;;;;;;;;;;5057816;28;20718;-84
2022/07/05 07:24:11;;;;;;;1.30;1.20;;;;;;;;;;5058146;28;20262;-84
2022/07/05 07:29:33;;;;;;;3.20;1.30;;;;;;;;;;4999039;28;20198;-84
2022/07/05 07:32:02;;;;;;;2.90;1.20;;;;;;;;;;5057902;28;20285;-84
2022/07/05 07:34:32;;;;;;;2.65;1.30;;;;;;;;;;5058282;28;20738;-84
2022/07/05 07:37:00;;;;;;;1.10;1.00;;;;;;;;;;5058379;28;20244;-85
2022/07/05 07:39:28;;;;;;;1.55;1.15;;;;;;;;;;5057819;28;20241;-84
2022/07/05 07:41:56;;;;;;;1.33;1.27;;;;;;;;;;5057241;28;20230;-83
2022/07/05 07:44:23;;;;;;;1.45;1.30;;;;;;;;;;5058117;28;20560;-83
2022/07/05 07:46:51;;;;;;;1.30;1.20;;;;;;;;;;5058288;28;20300;-84
2022/07/05 07:49:19;;;;;;;1.10;1.10;;;;;;;;;;5058698;28;20209;-84
2022/07/05 07:51:48;;;;;;;1.23;1.20;;;;;;;;;;5059838;28;20253;-85
2022/07/05 07:54:15;;;;;;;1.60;1.20;;;;;;;;;;5060515;28;20233;-85
2022/07/05 07:56:43;;;;;;;0.90;0.90;;;;;;;;;;5058682;28;20229;-83
2022/07/05 07:59:11;;;;;;;1.50;1.40;;;;;;;;;;5059332;28;20236;-84
2022/07/05 08:01:39;;;;;;;1.50;1.27;;;;;;;;;;5058876;28;20317;-84
2022/07/05 08:04:06;;;;;;;2.30;1.40;;;;;;;;;;5058766;28;20281;-85
2022/07/05 08:06:34;;;;;;;1.20;1.10;;;;;;;;;;5058271;28;20233;-84
2022/07/05 08:09:03;;;;;;;1.00;1.00;;;;;;;;;;5058473;28;20233;-83
2022/07/05 08:11:31;;;;;;;1.40;1.30;;;;;;;;;;5063774;28;20259;-84
2022/07/05 08:13:58;;;;;;;1.20;1.20;;;;;;;;;;5075851;28;20213;-85
2022/07/05 08:16:26;;;;;;;1.13;1.13;;;;;;;;;;5066554;28;20265;-87
2022/07/05 08:21:39;;;;;;;1.80;1.05;;;;;;;;;;5064338;28;20225;-84
2022/07/05 08:24:10;;;;;;;1.10;1.00;;;;;;;;;;5064796;28;20205;-84
2022/07/05 08:26:39;;;;;;;1.23;0.95;;;;;;;;;;5065400;28;20213;-84
2022/07/05 08:29:09;;;;;;;1.15;1.10;;;;;;;;;;5065345;28;20233;-84
2022/07/05 08:31:40;;;;;;;1.60;1.30;;;;;;;;;;5064463;28;20249;-85
2022/07/05 08:34:08;;;;;;;1.92;1.30;;;;;;;;;;5064273;28;20233;-84
2022/07/05 08:36:35;;;;;;;0.93;0.93;;;;;;;;;;5063428;28;20685;-84
2022/07/05 08:39:03;;;;;;;1.95;1.23;;;;;;;;;;5063115;28;20236;-84
2022/07/05 08:41:37;;;;;;;0.93;0.93;;;;;;;;;;5062887;28;20253;-86
2022/07/05 08:44:06;;;;;;;1.30;1.20;;;;;;;;;;5079237;28;20668;-85
2022/07/05 08:46:39;;;;;;;1.10;1.10;;;;;;;;;;5083299;28;20237;-84
2022/07/05 08:49:07;;;;;;;1.30;1.20;;;;;;;;;;5081068;28;20232;-84
2022/07/05 08:51:38;;;;;;;0.90;0.90;;;;;;;;;;5082327;28;20233;-85
2022/07/05 08:54:07;;;;;;;1.13;1.02;;;;;;;;;;5083497;28;20203;-84
2022/07/05 08:56:37;;;;;;;1.50;1.40;;;;;;;;;;5082489;28;20201;-85
2022/07/05 08:59:05;;;;;;;1.77;1.55;;;;;;;;;;5083121;28;20201;-85
2022/07/05 09:01:34;;;;;;;1.20;1.10;;;;;;;;;;5081945;28;20292;-85
2022/07/05 09:04:04;;;;;;;1.23;1.13;;;;;;;;;;5082300;28;20216;-87
2022/07/05 09:06:35;;;;;;;2.17;0.98;;;;;;;;;;5082376;28;20600;-87
2022/07/05 09:09:04;;;;;;;0.95;0.95;;;;;;;;;;5080260;28;20220;-84
2022/07/05 09:11:39;;;;;;;0.95;0.95;;;;;;;;;;5080132;28;20311;-87
2022/07/05 09:14:17;;;;;;;1.38;1.23;;;;;;;;;;5063588;28;20252;-84
2022/07/05 09:16:44;;;;;;;0.80;0.80;;;;;;;;;;5061007;28;20232;-86
2022/07/05 09:19:12;;;;;;;1.65;1.00;;;;;;;;;;5060113;28;20237;-85
2022/07/05 09:21:39;;;;;;;1.10;1.10;;;;;;;;;;5059344;28;20268;-84
2022/07/05 09:24:10;;;;;;;1.30;1.00;;;;;;;;;;5060043;28;20649;-84
2022/07/05 09:26:42;;;;;;;1.33;1.23;;;;;;;;;;5061380;28;20206;-86
2022/07/05 09:29:11;;;;;;;1.63;1.10;;;;;;;;;;5060755;28;20221;-86
2022/07/05 09:31:41;;;;;;;1.98;1.40;;;;;;;;;;5060447;28;20241;-84
2022/07/05 09:34:10;;;;;;;1.00;1.00;;;;;;;;;;5060340;28;20623;-86
2022/07/05 09:36:54;;;;;;;1.85;1.33;;;;;;;;;;5060714;28;20229;-84
2022/07/05 09:39:38;;;;;;;1.35;1.33;;;;;;;;;;5059296;28;20417;-84
2022/07/05 09:42:19;;;;;;;1.38;1.27;;;;;;;;;;5060023;28;20252;-86
2022/07/05 09:44:48;;;;;;;1.98;1.13;;;;;;;;;;5059410;28;20205;-86
2022/07/05 09:47:18;;;;;;;1.23;1.13;;;;;;;;;;5059672;28;20200;-86
2022/07/05 09:49:49;;;;;;;0.98;0.98;;;;;;;;;;5059921;28;20248;-86
2022/07/05 09:52:30;;;;;;;3.13;2.22;;;;;;;;;;5059502;28;20260;-86
2022/07/05 09:55:05;;;;;;;1.50;1.40;;;;;;;;;;5059527;28;20233;-86
2022/07/05 09:57:36;;;;;;;1.50;1.40;;;;;;;;;;5059114;28;20236;-86
2022/07/05 10:00:07;;;;;;;1.55;1.27;;;;;;;;;;5060861;28;20238;-87
2022/07/05 10:02:39;;;;;;;1.40;1.30;;;;;;;;;;5059740;28;20232;-86
2022/07/05 10:05:12;;;;;;;1.15;1.15;;;;;;;;;;5060162;28;20233;-87
2022/07/05 10:07:44;;;;;;;2.33;1.63;;;;;;;;;;5059890;28;20216;-85
2022/07/05 10:10:13;;;;;;;1.60;1.50;;;;;;;;;;5059315;28;20198;-86
2022/07/05 10:12:44;;;;;;;1.67;1.10;;;;;;;;;;5058893;28;20205;-87
2022/07/05 10:15:14;;;;;;;1.20;1.10;;;;;;;;;;5059521;28;20677;-84
2022/07/05 10:17:45;;;;;;;2.47;1.52;;;;;;;;;;5059923;28;20598;-85
2022/07/05 10:20:19;;;;;;;1.27;1.23;;;;;;;;;;5058413;28;20251;-86
2022/07/05 10:22:47;;;;;;;0.93;0.93;;;;;;;;;;5058601;28;20712;-85
2022/07/05 10:25:15;;;;;;;1.33;1.23;;;;;;;;;;5059508;28;20252;-84
2022/07/05 10:27:44;;;;;;;1.38;1.27;;;;;;;;;;5057939;28;20236;-85
2022/07/05 10:30:13;;;;;;;1.63;1.23;;;;;;;;;;5057472;28;20263;-85
2022/07/05 10:32:41;;;;;;;1.10;1.10;;;;;;;;;;5058544;28;20294;-84
2022/07/05 10:35:10;;;;;;;1.08;1.05;;;;;;;;;;5061789;28;20202;-85
2022/07/05 10:37:38;;;;;;;1.30;1.30;;;;;;;;;;5062058;28;20576;-85
2022/07/05 10:40:08;;;;;;;1.02;1.02;;;;;;;;;;5061872;28;20238;-87
2022/07/05 10:42:40;;;;;;;1.33;1.25;;;;;;;;;;5060609;28;20257;-84
2022/07/05 10:45:29;;;;;;;2.20;2.08;;;;;;;;;;5062191;28;20221;-86
2022/07/05 10:48:17;;;;;;;1.33;1.00;;;;;;;;;;5072034;28;20201;-84
2022/07/05 10:50:51;;;;;;;1.33;1.10;;;;;;;;;;5082930;28;20285;-85
2022/07/05 10:53:21;;;;;;;1.25;1.17;;;;;;;;;;5081955;28;20201;-86
2022/07/05 10:55:51;;;;;;;0.98;0.98;;;;;;;;;;5081976;28;20197;-85
2022/07/05 10:58:33;;;;;;;1.08;1.08;;;;;;;;;;5081047;28;20223;-85
2022/07/05 11:01:36;;;;;;;1.00;0.98;;;;;;;;;;5082026;28;20297;-84
2022/07/05 11:04:32;;;;;;;1.33;1.23;;;;;;;;;;4998059;28;20707;-85
2022/07/05 11:07:00;;;;;;;1.02;0.98;;;;;;;;;;5081988;28;20189;-84
2022/07/05 11:09:28;;;;;;;1.77;1.05;;;;;;;;;;5083053;28;20231;-83
2022/07/05 11:12:09;;;;;;;1.63;1.33;;;;;;;;;;5082164;28;20232;-83
2022/07/05 11:14:47;;;;;;;1.52;1.42;;;;;;;;;;5061428;28;20674;-83
2022/07/05 11:17:29;;;;;;;1.30;1.20;;;;;;;;;;5062857;28;20285;-83
2022/07/05 11:20:23;;;;;;;1.20;1.10;;;;;;;;;;5062426;28;20198;-84
2022/07/05 11:23:13;;;;;;;1.27;1.20;;;;;;;;;;5061518;28;20221;-83
2022/07/05 11:25:48;;;;;;;0.93;0.93;;;;;;;;;;5061636;28;20256;-83
2022/07/05 11:28:23;;;;;;;1.42;1.00;;;;;;;;;;5062259;28;20595;-84
2022/07/05 11:30:54;;;;;;;1.48;1.17;;;;;;;;;;5062130;28;20227;-85
2022/07/05 11:33:38;;;;;;;1.30;1.20;;;;;;;;;;5062253;28;20599;-84
2022/07/05 11:36:22;;;;;;;1.20;1.15;;;;;;;;;;5063210;28;20615;-84
2022/07/05 11:39:16;;;;;;;1.02;1.02;;;;;;;;;;5061697;28;20212;-84
2022/07/05 11:41:46;;;;;;;1.15;1.00;;;;;;;;;;5042925;28;20632;-84
2022/07/05 11:44:15;;;;;;;1.20;1.20;;;;;;;;;;5060799;28;20290;-85
2022/07/05 11:46:44;;;;;;;2.40;1.20;;;;;;;;;;5061544;28;20273;-86
2022/07/05 11:49:13;;;;;;;1.55;1.23;;;;;;;;;;5059932;28;20614;-84
2022/07/05 11:51:40;;;;;;;1.30;1.20;;;;;;;;;;5061535;28;20241;-86
2022/07/05 11:54:11;;;;;;;1.50;1.40;;;;;;;;;;5062506;28;20198;-83
2022/07/05 11:56:39;;;;;;;1.08;1.05;;;;;;;;;;5061120;28;20198;-84
2022/07/05 11:59:19;;;;;;;1.25;1.25;;;;;;;;;;5060973;28;20674;-83
2022/07/05 12:01:47;;;;;;;1.13;1.13;;;;;;;;;;5061043;28;20243;-84
2022/07/05 12:04:24;;;;;;;1.10;1.10;;;;;;;;;;5060226;28;20264;-84
2022/07/05 12:06:52;;;;;;;1.15;0.95;;;;;;;;;;5060826;28;20220;-84
2022/07/05 12:09:25;;;;;;;0.95;0.95;;;;;;;;;;5059740;28;20237;-83
2022/07/05 12:14:38;;;;;;;2.75;1.20;;;;;;;;;;5061521;28;20188;-85
2022/07/05 12:17:14;;;;;;;1.20;1.20;;;;;;;;;;5060890;28;20417;-83
2022/07/05 12:19:43;;;;;;;1.52;1.40;;;;;;;;;;5061571;28;20229;-85
2022/07/05 12:22:10;;;;;;;1.10;1.10;;;;;;;;;;5060270;28;20214;-83
2022/07/05 12:24:38;;;;;;;1.77;1.30;;;;;;;;;;5062176;28;20697;-83
2022/07/05 12:27:06;;;;;;;1.80;1.70;;;;;;;;;;5060258;28;20217;-83
2022/07/05 12:29:34;;;;;;;0.98;0.98;;;;;;;;;;5061518;28;20288;-83
2022/07/05 12:32:04;;;;;;;1.50;1.40;;;;;;;;;;5062653;28;20260;-83
2022/07/05 12:34:31;;;;;;;1.00;1.00;;;;;;;;;;5062320;28;20288;-83
2022/07/05 12:37:00;;;;;;;0.98;0.98;;;;;;;;;;5061145;28;20689;-83
2022/07/05 12:39:28;;;;;;;1.10;1.10;;;;;;;;;;5061396;28;20280;-84
2022/07/05 12:41:56;;;;;;;1.38;1.25;;;;;;;;;;5061967;28;20257;-82
2022/07/05 12:44:23;;;;;;;1.10;1.08;;;;;;;;;;5080439;28;20217;-83
2022/07/05 12:46:51;;;;;;;1.17;1.17;;;;;;;;;;5081984;28;20655;-85
2022/07/05 12:49:19;;;;;;;1.10;1.00;;;;;;;;;;5081143;28;20229;-84
2022/07/05 12:51:47;;;;;;;0.98;0.98;;;;;;;;;;5080624;28;20248;-83
2022/07/05 13:00:03;;;;;;;1.20;1.20;;;;;;;;;;5080851;28;20188;-84
2022/07/05 13:02:39;;;;;;;1.10;1.10;;;;;;;;;;5082153;28;20226;-86
2022/07/05 13:05:09;;;;;;;1.70;1.40;;;;;;;;;;5079938;28;20260;-83
2022/07/05 13:07:43;;;;;;;1.13;1.00;;;;;;;;;;5079188;28;20244;-84
2022/07/05 13:10:20;;;;;;;1.20;1.20;;;;;;;;;;5080001;28;20173;-84
2022/07/05 13:12:49;;;;;;;1.00;1.00;;;;;;;;;;5074114;28;20232;-84
2022/07/05 13:15:17;;;;;;;1.30;1.20;;;;;;;;;;5068828;28;20209;-83
2022/07/05 13:17:45;;;;;;;1.65;1.55;;;;;;;;;;5081098;28;20212;-83
2022/07/05 13:20:17;;;;;;;1.52;1.33;;;;;;;;;;5081154;28;20628;-83
2022/07/05 13:22:44;;;;;;;0.80;0.80;;;;;;;;;;5082007;28;20646;-82
2022/07/05 13:25:12;;;;;;;1.52;1.30;;;;;;;;;;5078594;28;20278;-83
2022/07/05 13:27:41;;;;;;;1.02;1.02;;;;;;;;;;5081136;28;20200;-84
2022/07/05 13:30:10;;;;;;;1.25;1.08;;;;;;;;;;5081990;28;20212;-84
2022/07/05 13:32:38;;;;;;;1.00;1.00;;;;;;;;;;5080727;28;20264;-83
2022/07/05 13:35:07;;;;;;;1.40;1.30;;;;;;;;;;5080815;28;20237;-83
2022/07/05 13:37:34;;;;;;;1.30;1.20;;;;;;;;;;5080866;28;20197;-83
2022/07/05 13:40:02;;;;;;;1.25;1.20;;;;;;;;;;5080218;28;20247;-84
2022/07/05 13:42:29;;;;;;;0.90;0.90;;;;;;;;;;5081114;28;20278;-85
2022/07/05 13:44:58;;;;;;;1.30;1.20;;;;;;;;;;5078934;28;20753;-83
2022/07/05 13:47:26;;;;;;;1.00;1.00;;;;;;;;;;5076662;28;20197;-85
2022/07/05 13:50:31;;;;;;;1.27;1.17;;;;;;;;;;5078195;28;20236;-85
2022/07/05 13:52:41;;;;;;;0.98;0.98;;;;;;;;;;5078399;28;20296;-86
2022/07/05 13:55:09;;;;;;;1.65;0.95;;;;;;;;;;5079118;28;20236;-85
2022/07/05 13:57:37;;;;;;;0.95;0.95;;;;;;;;;;5077993;28;20243;-85
2022/07/05 14:00:08;;;;;;;1.33;1.17;;;;;;;;;;5078855;28;20726;-85
2022/07/05 14:02:36;;;;;;;1.00;1.00;;;;;;;;;;5076712;28;20295;-85
2022/07/05 14:05:03;;;;;;;2.72;1.42;;;;;;;;;;5076422;28;20260;-85
2022/07/05 14:07:31;;;;;;;1.20;1.10;;;;;;;;;;5077337;28;20669;-84
2022/07/05 14:09:58;;;;;;;1.70;1.60;;;;;;;;;;5077140;28;20288;-85
2022/07/05 14:12:26;;;;;;;1.30;1.15;;;;;;;;;;5072851;28;20710;-84
2022/07/05 14:14:53;;;;;;;1.15;1.15;;;;;;;;;;5055315;28;20229;-85
2022/07/05 14:17:22;;;;;;;0.98;0.98;;;;;;;;;;5055484;28;20293;-86
2022/07/05 14:19:49;;;;;;;1.50;1.40;;;;;;;;;;5057091;28;20620;-86
2022/07/05 14:22:17;;;;;;;1.30;1.20;;;;;;;;;;5056117;28;20253;-85
2022/07/05 14:24:44;;;;;;;1.17;1.08;;;;;;;;;;5054960;28;20338;-82
2022/07/05 14:27:12;;;;;;;1.02;0.90;;;;;;;;;;5057127;28;20296;-85
2022/07/05 14:29:39;;;;;;;1.30;1.20;;;;;;;;;;5056549;28;20248;-86
2022/07/05 14:32:08;;;;;;;1.25;1.20;;;;;;;;;;5055578;28;20253;-84
2022/07/05 14:34:36;;;;;;;1.15;1.05;;;;;;;;;;5055946;28;20233;-84
2022/07/05 14:37:04;;;;;;;1.33;1.20;;;;;;;;;;5056604;28;20636;-83
2022/07/05 14:39:32;;;;;;;1.15;1.05;;;;;;;;;;5056670;28;20265;-83
2022/07/05 14:41:59;;;;;;;1.08;1.08;;;;;;;;;;5055376;28;20772;-84
2022/07/05 14:44:27;;;;;;;1.00;1.00;;;;;;;;;;5056130;28;20689;-85
2022/07/05 14:46:54;;;;;;;1.30;1.20;;;;;;;;;;5055769;28;20289;-86
2022/07/05 14:49:22;;;;;;;1.42;1.33;;;;;;;;;;5054283;28;20288;-86
2022/07/05 14:51:51;;;;;;;1.08;1.08;;;;;;;;;;5056147;28;20244;-85
2022/07/05 14:54:18;;;;;;;1.30;1.30;;;;;;;;;;5056294;28;20233;-86
2022/07/05 14:56:46;;;;;;;1.27;1.08;;;;;;;;;;5055707;28;20236;-85
2022/07/05 14:59:13;;;;;;;0.90;0.90;;;;;;;;;;5055908;28;20289;-84
2022/07/05 15:01:41;;;;;;;0.90;0.90;;;;;;;;;;5055197;28;20308;-86
2022/07/05 15:04:08;;;;;;;0.98;0.98;;;;;;;;;;5056565;28;20286;-86
2022/07/05 15:06:36;;;;;;;2.15;1.77;;;;;;;;;;5055549;28;20313;-84
2022/07/05 15:09:05;;;;;;;1.30;1.20;;;;;;;;;;5056293;28;20691;-84
2022/07/05 15:11:32;;;;;;;1.40;1.30;;;;;;;;;;5054975;28;20229;-84